Time;durP1;ratioP1;P1;durP2;ratioP2;P2;SDS_P1;SDS_P2;PMS_P1;PMS_P2;Temp;Humidity;BMP_temperature;BMP_pressure;BME280_temperature;BME280_humidity;BME280_pressure;Samples;Min_cycle;Max_cycle;Signal;HPM_P1;HPM_P2
2021/12/17 00:00:08;;;;;;;;;;;4.40;99.90;5.00;101148.00;;;;339366;28;82527;-92
2021/12/17 00:00:19;;;;;;;;;;;4.50;99.90;5.00;101145.00;;;;337705;28;90470;-92
2021/12/17 00:00:31;;;;;;;;;;;4.40;99.90;5.00;101145.00;;;;339434;28;83415;-92
2021/12/17 00:00:46;;;;;;;;;;;4.40;99.90;5.00;101148.00;;;;340347;28;91736;-92
2021/12/17 00:00:59;;;;;;;;;;;4.40;99.90;5.10;101144.00;;;;339189;28;82492;-93
2021/12/17 00:01:12;;;;;;;;;;;4.50;99.90;5.20;101143.00;;;;336367;28;92429;-92
2021/12/17 00:01:49;;;;;;;;;;;4.50;99.90;5.20;101150.00;;;;335584;29;83303;-92
2021/12/17 00:03:09;;;;;;;;;;;4.50;99.90;5.00;101153.00;;;;339273;28;82600;-92
2021/12/17 00:03:32;;;;;;;;;;;4.50;99.90;5.00;101148.00;;;;337062;28;89166;-92
2021/12/17 00:03:49;;;;;;;;;;;4.50;99.90;5.00;101151.00;;;;339800;28;82546;-93
2021/12/17 00:04:13;;;;;;;;;;;4.50;99.90;5.00;101148.00;;;;339070;28;89120;-92
2021/12/17 00:04:59;;;;;;;;;;;4.50;99.90;5.20;101146.00;;;;340242;28;91683;-92
2021/12/17 00:05:14;;;;;;;;;;;4.50;99.90;5.10;101144.00;;;;338827;28;83198;-92
2021/12/17 00:05:43;;;;;;;;;;;4.50;99.90;5.20;101142.00;;;;338375;28;91688;-92
2021/12/17 00:06:12;;;;;;;;;;;4.60;99.90;5.10;101146.00;;;;339945;28;82361;-93
2021/12/17 00:06:47;;;;;;;;;;;4.60;99.90;5.10;101143.00;;;;335259;29;83703;-93
2021/12/17 00:06:59;;;;;;;;;;;4.50;99.90;5.00;101143.00;;;;336124;28;89401;-93
2021/12/17 00:07:13;;;;;;;;;;;4.60;99.90;5.10;101140.00;;;;336264;28;83568;-92
2021/12/17 00:07:26;;;;;;;;;;;4.60;99.90;5.10;101149.00;;;;336300;28;90183;-93
2021/12/17 00:07:40;;;;;;;;;;;4.60;99.90;5.10;101150.00;;;;336889;28;83407;-93
2021/12/17 00:07:52;;;;;;;;;;;4.60;99.90;5.10;101148.00;;;;335931;28;90331;-93
2021/12/17 00:08:04;;;;;;;;;;;4.50;99.90;5.10;101146.00;;;;338334;28;82530;-93
2021/12/17 00:08:16;;;;;;;;;;;4.50;99.90;5.10;101145.00;;;;336803;28;90104;-93
2021/12/17 00:08:27;;;;;;;;;;;4.50;99.90;5.10;101153.00;;;;340073;28;83164;-93
2021/12/17 00:08:41;;;;;;;;;;;4.50;99.90;5.10;101154.00;;;;338798;28;90354;-92
2021/12/17 00:08:54;;;;;;;;;;;4.50;99.90;5.00;101145.00;;;;337101;28;82563;-93
2021/12/17 00:09:07;;;;;;;;;;;4.50;99.90;5.00;101145.00;;;;337848;28;90087;-93
2021/12/17 00:09:18;;;;;;;;;;;4.50;99.90;5.00;101144.00;;;;337129;28;83411;-92
2021/12/17 00:09:30;;;;;;;;;;;4.60;99.90;5.00;101144.00;;;;336286;28;89381;-93
2021/12/17 00:09:43;;;;;;;;;;;4.60;99.90;5.00;101143.00;;;;336814;28;83504;-92
2021/12/17 00:09:56;;;;;;;;;;;4.60;99.90;5.00;101142.00;;;;337442;28;91225;-92
2021/12/17 00:10:14;;;;;;;;;;;4.60;99.90;5.00;101136.00;;;;338826;28;83526;-93
2021/12/17 00:10:26;;;;;;;;;;;4.60;99.90;5.10;101144.00;;;;336194;28;92704;-92
2021/12/17 00:10:38;;;;;;;;;;;4.50;99.90;5.00;101144.00;;;;337748;28;83478;-93
2021/12/17 00:10:50;;;;;;;;;;;4.60;99.90;5.10;101146.00;;;;337654;28;91117;-93
2021/12/17 00:11:02;;;;;;;;;;;4.60;99.90;5.10;101139.00;;;;338104;28;83404;-92
2021/12/17 00:11:14;;;;;;;;;;;4.60;99.90;5.10;101135.00;;;;336244;28;88989;-92
2021/12/17 00:11:26;;;;;;;;;;;4.50;99.90;5.10;101143.00;;;;336739;28;82453;-92
2021/12/17 00:11:38;;;;;;;;;;;4.60;99.90;5.10;101142.00;;;;336144;28;91254;-93
2021/12/17 00:11:50;;;;;;;;;;;4.60;99.90;5.10;101143.00;;;;339355;28;83316;-92
2021/12/17 00:12:02;;;;;;;;;;;4.60;99.90;5.10;101139.00;;;;336129;28;91790;-92
2021/12/17 00:12:17;;;;;;;;;;;4.60;99.90;5.10;101139.00;;;;339322;28;83470;-92
2021/12/17 00:12:28;;;;;;;;;;;4.60;99.90;5.10;101138.00;;;;338877;28;90954;-93
2021/12/17 00:12:40;;;;;;;;;;;4.60;99.90;5.10;101139.00;;;;339200;28;82332;-93
2021/12/17 00:12:52;;;;;;;;;;;4.60;99.90;5.10;101137.00;;;;337720;28;90242;-92
2021/12/17 00:13:04;;;;;;;;;;;4.60;99.90;5.10;101132.00;;;;336300;28;82704;-92
2021/12/17 00:13:16;;;;;;;;;;;4.60;99.90;5.10;101141.00;;;;338181;28;91438;-92
2021/12/17 00:13:28;;;;;;;;;;;4.60;99.90;5.00;101135.00;;;;335173;29;83531;-92
2021/12/17 00:13:41;;;;;;;;;;;4.60;99.90;5.00;101146.00;;;;337540;28;92392;-93
2021/12/17 00:13:55;;;;;;;;;;;4.60;99.90;5.00;101136.00;;;;336662;28;82497;-92
2021/12/17 00:14:08;;;;;;;;;;;4.60;99.90;5.00;101146.00;;;;335944;28;91889;-93
2021/12/17 00:14:27;;;;;;;;;;;4.60;99.90;5.00;101148.00;;;;339325;28;82487;-92
2021/12/17 00:14:39;;;;;;;;;;;4.60;99.90;5.00;101143.00;;;;337387;28;91337;-93
2021/12/17 00:14:51;;;;;;;;;;;4.60;99.90;5.00;101139.00;;;;336625;28;82487;-92
2021/12/17 00:15:03;;;;;;;;;;;4.60;99.90;5.00;101142.00;;;;336253;28;90086;-92
2021/12/17 00:15:15;;;;;;;;;;;4.60;99.90;5.00;101142.00;;;;337749;28;83514;-92
2021/12/17 00:15:27;;;;;;;;;;;4.60;99.90;5.00;101149.00;;;;334993;29;90753;-92
2021/12/17 00:15:40;;;;;;;;;;;4.60;99.90;5.00;101139.00;;;;337929;28;82665;-92
2021/12/17 00:15:52;;;;;;;;;;;4.60;99.90;5.00;101140.00;;;;336175;28;90541;-93
2021/12/17 00:16:13;;;;;;;;;;;4.60;99.90;5.00;101140.00;;;;337608;28;83407;-93
2021/12/17 00:16:30;;;;;;;;;;;4.60;99.90;5.10;101141.00;;;;336138;28;91151;-93
2021/12/17 00:16:42;;;;;;;;;;;4.60;99.90;5.10;101149.00;;;;339204;28;83365;-92
2021/12/17 00:16:55;;;;;;;;;;;4.60;99.90;5.10;101141.00;;;;336034;28;90286;-94
2021/12/17 00:17:10;;;;;;;;;;;4.60;99.90;5.10;101143.00;;;;337491;28;83213;-93
2021/12/17 00:17:27;;;;;;;;;;;4.60;99.90;5.00;101133.00;;;;338908;28;91679;-93
2021/12/17 00:17:49;;;;;;;;;;;4.60;99.90;5.00;101141.00;;;;337736;28;83493;-93
2021/12/17 00:18:04;;;;;;;;;;;4.60;99.90;5.10;101137.00;;;;333620;29;91253;-92
2021/12/17 00:18:23;;;;;;;;;;;4.60;99.90;5.10;101148.00;;;;336646;28;83616;-92
2021/12/17 00:18:49;;;;;;;;;;;4.60;99.90;5.20;101144.00;;;;337391;28;90771;-93
2021/12/17 00:20:42;;;;;;;;;;;4.60;99.90;5.10;101133.00;;;;335953;28;89345;-92
2021/12/17 00:44:12;;;;;;;;;;;4.90;99.90;5.30;101135.00;;;;335259;28;83567;-92
2021/12/17 00:48:38;;;;;;;;;;;4.90;99.90;5.30;101143.00;;;;337944;28;83333;-92
2021/12/17 00:48:49;;;;;;;;;;;4.90;99.90;5.40;101146.00;;;;336241;28;89373;-92
2021/12/17 00:49:03;;;;;;;;;;;4.90;99.90;5.30;101146.00;;;;334999;29;82583;-92
2021/12/17 00:49:14;;;;;;;;;;;4.90;99.90;5.30;101146.00;;;;336012;28;94089;-92
2021/12/17 00:49:29;;;;;;;;;;;4.90;99.90;5.30;101145.00;;;;339268;28;83240;-90
2021/12/17 00:50:39;;;;;;;;;;;4.90;99.90;5.30;101142.00;;;;335038;29;83576;-92
2021/12/17 00:51:55;;;;;;;;;;;4.90;99.90;5.30;101142.00;;;;336563;28;83446;-93
2021/12/17 00:52:02;;;;;;;;;;;4.90;99.90;5.30;101147.00;;;;336861;28;88084;-92
2021/12/17 00:52:14;;;;;;;;;;;4.80;99.90;5.20;101148.00;;;;332651;29;83574;-91
2021/12/17 00:52:29;;;;;;;;;;;4.80;99.90;5.30;101145.00;;;;333513;29;89300;-92
2021/12/17 00:52:40;;;;;;;;;;;4.80;99.90;5.20;101144.00;;;;337941;28;83297;-93
2021/12/17 00:52:52;;;;;;;;;;;4.80;99.90;5.30;101148.00;;;;336107;28;90376;-92
2021/12/17 00:53:06;;;;;;;;;;;4.80;99.90;5.30;101151.00;;;;336342;28;83415;-93
2021/12/17 00:53:21;;;;;;;;;;;4.80;99.90;5.30;101151.00;;;;335902;28;90416;-93
2021/12/17 00:53:33;;;;;;;;;;;4.80;99.90;5.30;101150.00;;;;336642;28;83425;-92
2021/12/17 00:53:45;;;;;;;;;;;4.80;99.90;5.40;101147.00;;;;337542;28;88200;-92
2021/12/17 00:53:58;;;;;;;;;;;4.80;99.90;5.30;101144.00;;;;336694;28;83523;-93
2021/12/17 00:54:19;;;;;;;;;;;4.80;99.90;5.30;101145.00;;;;334552;29;90877;-93
2021/12/17 00:54:40;;;;;;;;;;;4.80;99.90;5.30;101146.00;;;;335101;29;83431;-92
2021/12/17 00:54:52;;;;;;;;;;;4.80;99.90;5.30;101154.00;;;;337058;28;86828;-93
2021/12/17 00:55:05;;;;;;;;;;;4.80;99.90;5.20;101146.00;;;;333051;29;83327;-93
2021/12/17 00:55:17;;;;;;;;;;;4.80;99.90;5.20;101143.00;;;;334734;29;88875;-92
2021/12/17 00:55:29;;;;;;;;;;;4.80;99.90;5.20;101146.00;;;;333951;28;83695;-93
2021/12/17 00:55:40;;;;;;;;;;;4.80;99.90;5.30;101147.00;;;;334859;29;88307;-92
2021/12/17 00:55:52;;;;;;;;;;;4.80;99.90;5.30;101149.00;;;;335132;29;82574;-93
2021/12/17 00:56:04;;;;;;;;;;;4.80;99.90;5.30;101136.00;;;;336596;28;88875;-91
2021/12/17 00:56:16;;;;;;;;;;;4.80;99.90;5.30;101143.00;;;;336616;28;82555;-93
2021/12/17 00:56:28;;;;;;;;;;;4.80;99.90;5.30;101152.00;;;;336252;28;87604;-93
2021/12/17 00:56:40;;;;;;;;;;;4.80;99.90;5.40;101148.00;;;;335109;29;83383;-93
2021/12/17 00:56:53;;;;;;;;;;;4.80;99.90;5.40;101147.00;;;;334843;29;89363;-93
2021/12/17 00:57:08;;;;;;;;;;;4.90;99.90;5.30;101145.00;;;;332834;29;82444;-92
2021/12/17 00:57:27;;;;;;;;;;;4.80;99.90;5.30;101142.00;;;;334620;29;89588;-93
2021/12/17 00:57:42;;;;;;;;;;;4.80;99.90;5.20;101141.00;;;;336560;28;83411;-92
2021/12/17 00:57:54;;;;;;;;;;;4.80;99.90;5.20;101140.00;;;;337491;28;89098;-92
2021/12/17 00:58:06;;;;;;;;;;;4.80;99.90;5.20;101147.00;;;;335875;28;83490;-93
2021/12/17 00:58:17;;;;;;;;;;;4.80;99.90;5.20;101142.00;;;;333308;29;90727;-93
2021/12/17 00:58:29;;;;;;;;;;;4.80;99.90;5.30;101142.00;;;;337685;28;82364;-92
2021/12/17 00:58:41;;;;;;;;;;;4.80;99.90;5.30;101135.00;;;;336218;28;88866;-93
2021/12/17 00:58:54;;;;;;;;;;;4.80;99.90;5.30;101137.00;;;;338006;28;83261;-92
2021/12/17 00:59:06;;;;;;;;;;;4.80;99.90;5.20;101138.00;;;;337348;28;88790;-92
2021/12/17 00:59:18;;;;;;;;;;;4.80;99.90;5.20;101147.00;;;;337822;28;83288;-92
2021/12/17 00:59:30;;;;;;;;;;;4.80;99.90;5.20;101131.00;;;;336183;28;88859;-92
2021/12/17 00:59:44;;;;;;;;;;;4.80;99.90;5.20;101147.00;;;;335418;29;83285;-93
2021/12/17 00:59:56;;;;;;;;;;;4.80;99.90;5.20;101141.00;;;;334695;29;91173;-93
2021/12/17 01:00:14;;;;;;;;;;;4.80;99.90;5.20;101139.00;;;;333940;29;82588;-92
2021/12/17 01:00:26;;;;;;;;;;;4.80;99.90;5.20;101151.00;;;;334568;28;91748;-92
2021/12/17 01:00:38;;;;;;;;;;;4.80;99.90;5.20;101155.00;;;;336559;28;82478;-92
2021/12/17 01:00:51;;;;;;;;;;;4.70;99.90;5.20;101145.00;;;;336220;28;88606;-92
2021/12/17 01:01:02;;;;;;;;;;;4.80;99.90;5.20;101140.00;;;;335017;29;83580;-92
2021/12/17 01:01:15;;;;;;;;;;;4.80;99.90;5.10;101143.00;;;;335937;28;88503;-92
2021/12/17 01:01:27;;;;;;;;;;;4.70;99.90;5.10;101149.00;;;;334894;29;82556;-92
2021/12/17 01:01:38;;;;;;;;;;;4.70;99.90;5.10;101146.00;;;;334848;29;91078;-92
2021/12/17 01:01:51;;;;;;;;;;;4.70;99.90;5.10;101143.00;;;;334007;29;83378;-92
2021/12/17 01:02:06;;;;;;;;;;;4.70;99.90;5.10;101138.00;;;;334932;28;91071;-92
2021/12/17 01:02:21;;;;;;;;;;;4.70;99.90;5.10;101142.00;;;;336752;28;83260;-92
2021/12/17 01:02:33;;;;;;;;;;;4.70;99.90;5.10;101139.00;;;;334905;29;87999;-92
2021/12/17 01:02:46;;;;;;;;;;;4.70;99.90;5.10;101135.00;;;;336681;28;83339;-93
2021/12/17 01:02:57;;;;;;;;;;;4.70;99.90;5.10;101145.00;;;;333789;29;88062;-92
2021/12/17 01:03:10;;;;;;;;;;;4.70;99.90;5.10;101141.00;;;;335285;28;83621;-93
2021/12/17 01:03:22;;;;;;;;;;;4.70;99.90;5.00;101143.00;;;;336194;28;90665;-92
2021/12/17 01:03:34;;;;;;;;;;;4.70;99.90;5.10;101147.00;;;;336620;28;83697;-91
2021/12/17 01:03:46;;;;;;;;;;;4.70;99.90;5.10;101140.00;;;;337560;28;91060;-92
2021/12/17 01:03:58;;;;;;;;;;;4.70;99.90;5.10;101143.00;;;;335114;28;83728;-92
2021/12/17 01:04:10;;;;;;;;;;;4.70;99.90;5.00;101151.00;;;;336590;28;89630;-93
2021/12/17 01:04:23;;;;;;;;;;;4.70;99.90;5.00;101145.00;;;;335025;29;83688;-92
2021/12/17 01:04:36;;;;;;;;;;;4.60;99.90;5.10;101146.00;;;;334481;28;91510;-91
2021/12/17 01:04:50;;;;;;;;;;;4.60;99.90;5.10;101145.00;;;;336262;28;84071;-92
2021/12/17 01:05:14;;;;;;;;;;;4.70;99.90;5.10;101143.00;;;;335877;28;91310;-92
2021/12/17 01:05:28;;;;;;;;;;;4.70;99.90;5.00;101142.00;;;;335198;29;82366;-92
2021/12/17 01:05:39;;;;;;;;;;;4.70;99.90;5.00;101141.00;;;;335958;28;90789;-92
2021/12/17 01:05:51;;;;;;;;;;;4.60;99.90;5.00;101147.00;;;;336510;28;82629;-92
2021/12/17 01:06:03;;;;;;;;;;;4.60;99.90;5.00;101147.00;;;;336054;28;92725;-93
2021/12/17 01:06:15;;;;;;;;;;;4.60;99.90;5.00;101151.00;;;;337711;28;83462;-92
2021/12/17 01:06:27;;;;;;;;;;;4.70;99.90;5.00;101145.00;;;;334817;29;90839;-92
2021/12/17 01:06:39;;;;;;;;;;;4.60;99.90;5.00;101139.00;;;;336500;28;83477;-92
2021/12/17 01:06:54;;;;;;;;;;;4.60;99.90;5.10;101139.00;;;;337496;28;91533;-91
2021/12/17 01:07:06;;;;;;;;;;;4.70;99.90;5.10;101145.00;;;;336174;28;82446;-92
2021/12/17 01:07:19;;;;;;;;;;;4.60;99.90;5.00;101144.00;;;;335892;28;87617;-93
2021/12/17 01:07:32;;;;;;;;;;;4.60;99.90;5.00;101139.00;;;;336375;28;82351;-92
2021/12/17 01:07:46;;;;;;;;;;;4.60;99.90;5.10;101148.00;;;;333382;28;90595;-93
2021/12/17 01:08:05;;;;;;;;;;;4.60;99.90;5.10;101142.00;;;;335255;28;83335;-93
2021/12/17 01:08:16;;;;;;;;;;;4.60;99.90;5.10;101145.00;;;;334730;28;91571;-92
2021/12/17 01:08:28;;;;;;;;;;;4.60;99.90;5.10;101146.00;;;;333967;29;83554;-92
2021/12/17 01:08:40;;;;;;;;;;;4.60;99.90;5.10;101144.00;;;;337040;28;90307;-92
2021/12/17 01:08:52;;;;;;;;;;;4.60;99.90;5.10;101141.00;;;;339247;28;82492;-92
2021/12/17 01:09:05;;;;;;;;;;;4.60;99.90;5.00;101141.00;;;;338725;28;90727;-93
2021/12/17 01:09:18;;;;;;;;;;;4.60;99.90;5.00;101150.00;;;;337740;28;83708;-92
2021/12/17 01:09:30;;;;;;;;;;;4.60;99.90;5.00;101147.00;;;;338595;28;91161;-92
2021/12/17 01:09:42;;;;;;;;;;;4.60;99.90;5.00;101147.00;;;;340587;28;83557;-93
2021/12/17 01:09:54;;;;;;;;;;;4.60;99.90;5.00;101152.00;;;;337443;28;90103;-91
2021/12/17 01:10:08;;;;;;;;;;;4.60;99.90;5.10;101150.00;;;;335602;28;82575;-92
2021/12/17 01:10:34;;;;;;;;;;;4.60;99.90;5.20;101153.00;;;;336382;28;91111;-91
2021/12/17 01:10:51;;;;;;;;;;;4.60;99.90;5.30;101149.00;;;;339112;28;82439;-92
2021/12/17 01:11:03;;;;;;;;;;;4.60;99.90;5.20;101147.00;;;;336073;28;89659;-92
2021/12/17 01:11:15;;;;;;;;;;;4.60;99.90;5.10;101139.00;;;;335179;29;82485;-92
2021/12/17 01:11:27;;;;;;;;;;;4.60;99.90;5.10;101146.00;;;;337484;28;91426;-93
2021/12/17 01:11:39;;;;;;;;;;;4.70;99.90;5.00;101144.00;;;;336501;28;82487;-92
2021/12/17 01:11:51;;;;;;;;;;;4.60;99.90;5.00;101141.00;;;;333645;29;91285;-92
2021/12/17 01:12:03;;;;;;;;;;;4.60;99.90;5.00;101151.00;;;;337877;28;83503;-93
2021/12/17 01:12:15;;;;;;;;;;;4.60;99.90;5.00;101138.00;;;;338972;28;91229;-92
2021/12/17 01:12:27;;;;;;;;;;;4.60;99.90;5.10;101139.00;;;;335255;28;83212;-93
2021/12/17 01:12:39;;;;;;;;;;;4.60;99.90;5.10;101143.00;;;;330772;29;91454;-93
2021/12/17 01:12:51;;;;;;;;;;;4.60;99.90;5.10;101142.00;;;;332622;29;82284;-92
2021/12/17 01:13:03;;;;;;;;;;;4.60;99.90;5.10;101133.00;;;;333117;28;90528;-92
2021/12/17 01:13:15;;;;;;;;;;;4.60;99.90;5.10;101140.00;;;;334104;28;82288;-92
2021/12/17 01:13:27;;;;;;;;;;;4.60;99.90;5.10;101139.00;;;;334782;29;90845;-92
2021/12/17 01:13:40;;;;;;;;;;;4.60;99.90;5.00;101144.00;;;;336640;28;84002;-92
2021/12/17 01:13:52;;;;;;;;;;;4.60;99.90;5.00;101147.00;;;;338693;28;90649;-93
2021/12/17 01:14:04;;;;;;;;;;;4.60;99.90;5.10;101148.00;;;;336669;28;83420;-92
2021/12/17 01:14:16;;;;;;;;;;;4.60;99.90;5.10;101146.00;;;;332288;29;91531;-92
2021/12/17 01:14:28;;;;;;;;;;;4.60;99.90;5.20;101140.00;;;;333589;29;83073;-92
2021/12/17 01:14:40;;;;;;;;;;;4.60;99.90;5.20;101144.00;;;;333279;29;92570;-92
2021/12/17 01:14:53;;;;;;;;;;;4.70;99.90;5.20;101136.00;;;;332448;29;82485;-92
2021/12/17 01:15:06;;;;;;;;;;;4.60;99.90;5.10;101145.00;;;;333427;28;89282;-93
2021/12/17 01:15:19;;;;;;;;;;;4.60;99.90;5.20;101145.00;;;;331190;29;83555;-92
2021/12/17 01:15:31;;;;;;;;;;;4.60;99.90;5.20;101137.00;;;;333317;29;90340;-92
2021/12/17 01:15:42;;;;;;;;;;;4.60;99.90;5.20;101144.00;;;;333864;29;82566;-92
2021/12/17 01:15:55;;;;;;;;;;;4.60;99.90;5.30;101147.00;;;;332024;29;90471;-92
2021/12/17 01:16:07;;;;;;;;;;;4.60;99.90;5.30;101136.00;;;;334728;28;83545;-93
2021/12/17 01:16:19;;;;;;;;;;;4.60;99.90;5.20;101152.00;;;;335489;28;90197;-92
2021/12/17 01:16:31;;;;;;;;;;;4.60;99.90;5.10;101140.00;;;;332562;29;82432;-92
2021/12/17 01:16:42;;;;;;;;;;;4.70;99.90;5.20;101146.00;;;;331974;29;92811;-93
2021/12/17 01:16:54;;;;;;;;;;;4.60;99.90;5.10;101136.00;;;;332525;29;83235;-93
2021/12/17 01:17:07;;;;;;;;;;;4.60;99.90;5.20;101135.00;;;;334651;29;91118;-92
2021/12/17 01:17:19;;;;;;;;;;;4.70;99.90;5.20;101144.00;;;;333560;29;82584;-92
2021/12/17 01:17:34;;;;;;;;;;;4.60;99.90;5.10;101144.00;;;;333318;28;90870;-92
2021/12/17 01:17:49;;;;;;;;;;;4.60;99.90;5.10;101141.00;;;;333604;29;83316;-92
2021/12/17 01:18:07;;;;;;;;;;;4.60;99.90;5.10;101139.00;;;;332195;29;90435;-92
2021/12/17 01:18:20;;;;;;;;;;;4.60;99.90;5.10;101141.00;;;;333711;29;83451;-92
2021/12/17 01:19:30;;;;;;;;;;;4.60;99.90;5.20;101142.00;;;;336340;28;82311;-92
2021/12/17 01:21:29;;;;;;;;;;;4.60;99.90;5.20;101149.00;;;;335393;28;82418;-93
2021/12/17 01:21:58;;;;;;;;;;;4.70;99.90;5.10;101142.00;;;;334810;29;91190;-92
2021/12/17 01:24:53;;;;;;;;;;;4.60;99.90;5.10;101152.00;;;;338726;28;90433;-92
2021/12/17 01:25:11;;;;;;;;;;;4.60;99.90;5.10;101152.00;;;;340127;28;83516;-93
2021/12/17 01:35:29;;;;;;;;;;;4.70;99.90;5.10;101150.00;;;;339602;28;82858;-92
2021/12/17 01:35:42;;;;;;;;;;;4.70;99.90;5.10;101149.00;;;;340502;28;90072;-92
2021/12/17 01:35:53;;;;;;;;;;;4.70;99.90;5.10;101155.00;;;;341031;28;82492;-92
2021/12/17 01:36:05;;;;;;;;;;;4.70;99.90;5.20;101152.00;;;;340180;28;91410;-92
2021/12/17 01:36:17;;;;;;;;;;;4.70;99.90;5.20;101150.00;;;;339870;28;82385;-93
2021/12/17 01:36:30;;;;;;;;;;;4.70;99.90;5.20;101153.00;;;;339589;28;89737;-91
2021/12/17 01:36:41;;;;;;;;;;;4.70;99.90;5.20;101150.00;;;;342698;28;83234;-92
2021/12/17 01:37:15;;;;;;;;;;;4.70;99.90;5.20;101149.00;;;;339721;28;90273;-93
2021/12/17 01:41:06;;;;;;;;;;;4.70;99.90;5.20;101158.00;;;;339578;28;89541;-92
2021/12/17 01:42:06;;;;;;;;;;;4.70;99.90;5.40;101156.00;;;;338763;28;83414;-92
2021/12/17 01:42:18;;;;;;;;;;;4.70;99.90;5.40;101154.00;;;;335674;29;89946;-92
2021/12/17 01:42:29;;;;;;;;;;;4.70;99.90;5.40;101151.00;;;;341671;28;82294;-91
2021/12/17 01:42:42;;;;;;;;;;;4.70;99.90;5.30;101158.00;;;;339315;28;90463;-92
2021/12/17 01:42:54;;;;;;;;;;;4.70;99.90;5.30;101159.00;;;;339932;28;82682;-92
2021/12/17 01:43:06;;;;;;;;;;;4.70;99.90;5.30;101151.00;;;;337594;28;90331;-92
2021/12/17 01:43:18;;;;;;;;;;;4.70;99.90;5.30;101147.00;;;;339704;28;83405;-92
2021/12/17 01:43:35;;;;;;;;;;;4.70;99.90;5.30;101159.00;;;;337852;28;90631;-93
2021/12/17 01:43:48;;;;;;;;;;;4.70;99.90;5.30;101151.00;;;;341319;28;83427;-92
2021/12/17 01:44:00;;;;;;;;;;;4.70;99.90;5.30;101144.00;;;;339520;28;90243;-92
2021/12/17 01:44:13;;;;;;;;;;;4.80;99.90;5.30;101151.00;;;;338451;28;82611;-92
2021/12/17 01:44:25;;;;;;;;;;;4.70;99.90;5.30;101146.00;;;;336946;28;91591;-92
2021/12/17 01:44:38;;;;;;;;;;;4.70;99.90;5.30;101149.00;;;;337119;28;83265;-92
2021/12/17 01:44:49;;;;;;;;;;;4.70;99.90;5.30;101154.00;;;;338890;28;91862;-92
2021/12/17 01:45:01;;;;;;;;;;;4.70;99.90;5.30;101157.00;;;;336780;28;83498;-93
2021/12/17 01:45:13;;;;;;;;;;;4.70;99.90;5.20;101151.00;;;;339018;28;91504;-93
2021/12/17 01:45:29;;;;;;;;;;;4.70;99.90;5.30;101144.00;;;;338098;28;82396;-93
2021/12/17 01:45:42;;;;;;;;;;;4.70;99.90;5.50;101148.00;;;;337820;28;90212;-93
2021/12/17 01:45:56;;;;;;;;;;;4.80;99.90;5.50;101142.00;;;;338164;28;82588;-92
2021/12/17 01:46:08;;;;;;;;;;;4.80;99.90;5.50;101150.00;;;;339975;28;87578;-92
2021/12/17 01:46:22;;;;;;;;;;;4.80;99.90;5.40;101147.00;;;;340857;28;82513;-92
2021/12/17 01:46:35;;;;;;;;;;;4.80;99.90;5.40;101147.00;;;;341391;28;90487;-92
2021/12/17 01:46:50;;;;;;;;;;;4.80;99.90;5.40;101149.00;;;;339528;28;83271;-93
2021/12/17 01:47:02;;;;;;;;;;;4.80;99.90;5.30;101151.00;;;;340415;28;90980;-93
2021/12/17 01:47:14;;;;;;;;;;;4.80;99.90;5.20;101151.00;;;;337827;28;83628;-92
2021/12/17 01:47:26;;;;;;;;;;;4.80;99.90;5.30;101153.00;;;;337521;28;91085;-92
2021/12/17 01:47:38;;;;;;;;;;;4.80;99.90;5.20;101154.00;;;;342069;28;82656;-92
2021/12/17 01:47:50;;;;;;;;;;;4.80;99.90;5.20;101148.00;;;;337688;28;91289;-93
2021/12/17 01:48:28;;;;;;;;;;;4.80;99.90;5.20;101150.00;;;;338287;28;83432;-92
2021/12/17 01:49:03;;;;;;;;;;;4.80;99.90;5.20;101156.00;;;;339089;28;91573;-92
2021/12/17 01:56:29;;;;;;;;;;;4.80;99.90;5.20;101150.00;;;;338865;28;91714;-93
2021/12/17 01:59:27;;;;;;;;;;;4.80;99.90;5.10;101158.00;;;;337820;28;83387;-93
2021/12/17 01:59:40;;;;;;;;;;;4.70;99.90;5.10;101155.00;;;;337405;28;92233;-92
2021/12/17 02:00:13;;;;;;;;;;;4.70;99.90;5.20;101157.00;;;;336697;28;83279;-92
2021/12/17 02:00:30;;;;;;;;;;;4.70;99.90;5.20;101152.00;;;;335032;29;91479;-92
2021/12/17 02:00:43;;;;;;;;;;;4.70;99.90;5.20;101165.00;;;;337821;28;82605;-93
2021/12/17 02:00:56;;;;;;;;;;;4.70;99.90;5.20;101147.00;;;;329861;28;90849;-92
2021/12/17 02:01:07;;;;;;;;;;;4.70;99.90;5.20;101146.00;;;;336422;28;83682;-93
2021/12/17 02:01:19;;;;;;;;;;;4.80;99.90;5.20;101153.00;;;;336326;28;90046;-92
2021/12/17 02:01:34;;;;;;;;;;;4.70;99.90;5.10;101155.00;;;;336738;28;83471;-92
2021/12/17 02:01:46;;;;;;;;;;;4.80;99.90;5.20;101146.00;;;;331117;29;87644;-92
2021/12/17 02:02:01;;;;;;;;;;;4.70;99.90;5.10;101152.00;;;;328713;29;83384;-93
2021/12/17 02:02:13;;;;;;;;;;;4.70;99.90;5.20;101156.00;;;;329607;29;91310;-92
2021/12/17 02:02:25;;;;;;;;;;;4.70;99.90;5.20;101156.00;;;;327697;28;83442;-92
2021/12/17 02:02:42;;;;;;;;;;;4.70;99.90;5.20;101144.00;;;;330809;29;91674;-92
2021/12/17 02:02:56;;;;;;;;;;;4.80;99.90;5.20;101154.00;;;;328973;29;83453;-92
2021/12/17 02:03:09;;;;;;;;;;;4.70;99.90;5.30;101158.00;;;;328478;29;91300;-92
2021/12/17 02:03:21;;;;;;;;;;;4.70;99.90;5.30;101150.00;;;;331369;29;82502;-92
2021/12/17 02:03:33;;;;;;;;;;;4.80;99.90;5.20;101150.00;;;;332034;29;90724;-92
2021/12/17 02:03:45;;;;;;;;;;;4.80;99.90;5.20;101160.00;;;;332758;29;82568;-92
2021/12/17 02:03:57;;;;;;;;;;;4.70;99.90;5.30;101148.00;;;;330734;28;91879;-92
2021/12/17 02:04:09;;;;;;;;;;;4.80;99.90;5.40;101150.00;;;;329278;28;83621;-93
2021/12/17 02:04:21;;;;;;;;;;;4.80;99.90;5.30;101158.00;;;;333301;29;90809;-93
2021/12/17 02:04:33;;;;;;;;;;;4.80;99.90;5.30;101154.00;;;;331259;29;83631;-92
2021/12/17 02:04:45;;;;;;;;;;;4.80;99.90;5.30;101159.00;;;;329648;29;90124;-92
2021/12/17 02:04:57;;;;;;;;;;;4.80;99.90;5.30;101152.00;;;;332674;29;83334;-93
2021/12/17 02:05:09;;;;;;;;;;;4.80;99.90;5.40;101157.00;;;;332170;29;90281;-92
2021/12/17 02:05:21;;;;;;;;;;;4.80;99.90;5.40;101147.00;;;;332683;29;82425;-92
2021/12/17 02:05:33;;;;;;;;;;;4.80;99.90;5.40;101153.00;;;;328507;29;91428;-93
2021/12/17 02:05:46;;;;;;;;;;;4.80;99.90;5.40;101158.00;;;;328822;29;83542;-92
2021/12/17 02:05:59;;;;;;;;;;;4.80;99.90;5.40;101160.00;;;;330885;29;90503;-93
2021/12/17 02:06:11;;;;;;;;;;;4.80;99.90;5.30;101145.00;;;;331402;29;82419;-93
2021/12/17 02:06:24;;;;;;;;;;;4.80;99.90;5.30;101151.00;;;;332263;29;92406;-91
2021/12/17 02:06:37;;;;;;;;;;;4.80;99.90;5.30;101148.00;;;;330056;29;82441;-93
2021/12/17 02:06:49;;;;;;;;;;;4.80;99.90;5.30;101160.00;;;;331041;29;88751;-93
2021/12/17 02:07:02;;;;;;;;;;;4.80;99.90;5.20;101151.00;;;;332809;28;83406;-92
2021/12/17 02:07:14;;;;;;;;;;;4.80;99.90;5.20;101151.00;;;;336319;28;90838;-93
2021/12/17 02:07:25;;;;;;;;;;;4.80;99.90;5.20;101152.00;;;;335413;29;82362;-93
2021/12/17 02:07:38;;;;;;;;;;;4.80;99.90;5.20;101151.00;;;;329653;28;90485;-93
2021/12/17 02:07:53;;;;;;;;;;;4.80;99.90;5.20;101160.00;;;;329019;29;83409;-93
2021/12/17 02:08:05;;;;;;;;;;;4.80;99.90;5.20;101160.00;;;;332200;29;91197;-92
2021/12/17 02:08:17;;;;;;;;;;;4.80;99.90;5.20;101150.00;;;;330101;29;82505;-92
2021/12/17 02:08:29;;;;;;;;;;;4.80;99.90;5.20;101158.00;;;;332248;29;89790;-93
2021/12/17 02:08:44;;;;;;;;;;;4.80;99.90;5.20;101157.00;;;;333892;29;83437;-92
2021/12/17 02:08:59;;;;;;;;;;;4.80;99.90;5.10;101159.00;;;;329802;29;91260;-92
2021/12/17 02:11:04;;;;;;;;;;;4.70;99.90;5.10;101161.00;;;;328925;28;83584;-92
2021/12/17 02:12:15;;;;;;;;;;;4.70;99.90;5.10;101168.00;;;;331316;29;83342;-93
2021/12/17 02:12:38;;;;;;;;;;;4.70;99.90;5.00;101167.00;;;;330003;29;83341;-92
2021/12/17 02:20:20;;;;;;;;;;;4.60;99.90;5.00;101163.00;;;;334091;29;91250;-92
2021/12/17 02:21:27;;;;;;;;;;;4.60;99.90;5.10;101161.00;;;;334064;29;90206;-92
2021/12/17 02:23:18;;;;;;;;;;;4.60;99.90;5.10;101169.00;;;;330664;29;83535;-92
2021/12/17 02:28:52;;;;;;;;;;;4.70;99.90;5.20;101168.00;;;;332817;29;83571;-92
2021/12/17 02:30:30;;;;;;;;;;;4.70;99.90;5.10;101167.00;;;;329126;29;82471;-92
2021/12/17 02:30:51;;;;;;;;;;;4.70;99.90;5.10;101165.00;;;;327606;29;83442;-92
2021/12/17 02:31:23;;;;;;;;;;;4.70;99.90;5.30;101166.00;;;;328287;29;91975;-93
2021/12/17 02:31:35;;;;;;;;;;;4.70;99.90;5.50;101162.00;;;;332715;29;82569;-92
2021/12/17 02:31:48;;;;;;;;;;;4.70;99.90;5.40;101163.00;;;;329664;29;91489;-92